Avondale, Missouri
Current Conditions -  °F | °C
As of 6:54 AM on Sunday 23 Nov 2014 (Local Time) from KMKC Reporting Station
Overcast Overcast  
Wind Chill: 55°   Ceiling: 1000
Heat Index: 55°   Visibility: 8mi
Dew Point: 52°   Wind: 8mph
Humidity: 89%   Direction: 170°S
Pressure: 29.52"   Gusts: NA
Location:  39.1657°N, 94.5231°W
Report Text: KMKC 231254Z 17007KT 8SM OVC010 13/11 A2952 RMK AO2 CIG 009V013 SLP994 T01280111
Loading
Personal Weather Stations






























Interactive Weather Map New forecast layout! Learn more

10-Day Weather Forecast

Advertisements
Track Severe Weather on mobile